EZY53JD EGHH-EGPH
Flight info
| Callsign | EZY53JD |
|---|---|
| Flight time | N/A |
| Altitude | 23000 |
| Route | SAM Q41 SILVA/N0399F240 M605 DTY/N0439F340 UY53 SAPCO UN57 POL UN601 RIBEL DCT INPIP |
| Aircraft | A320/M-SDE3FGHIRWY/LB1 |
Departure
| Time | 2026-05-07 15:48 |
|---|---|
| Airport | Bournemouth Airport (EGHH) |
Arrival
| Time | N/A |
|---|---|
| Airport | Edinburgh Airport (EGPH) |
| Time | Latitude | Longitude | Altitude | Speed | Heading |
|---|---|---|---|---|---|
| 2026-05-07 15:19 | 50.77767 | -1.83372 | 46 ft | 0 kts | 87° |
| 2026-05-07 15:36 | 50.77766 | -1.83386 | 46 ft | 4 kts | 90° |
| 2026-05-07 15:37 | 50.77766 | -1.83420 | 46 ft | 4 kts | 82° |
| 2026-05-07 15:37 | 50.77757 | -1.83454 | 44 ft | 4 kts | 31° |
| 2026-05-07 15:37 | 50.77735 | -1.83465 | 41 ft | 4 kts | 5° |
| 2026-05-07 15:37 | 50.77718 | -1.83469 | 42 ft | 0 kts | 12° |
| 2026-05-07 15:40 | 50.77735 | -1.83466 | 44 ft | 6 kts | 1° |
| 2026-05-07 15:40 | 50.77785 | -1.83465 | 46 ft | 7 kts | 0° |
| 2026-05-07 15:41 | 50.77830 | -1.83471 | 46 ft | 6 kts | 355° |
| 2026-05-07 15:41 | 50.77870 | -1.83477 | 46 ft | 5 kts | 352° |
| 2026-05-07 15:41 | 50.77905 | -1.83488 | 46 ft | 5 kts | 348° |
| 2026-05-07 15:41 | 50.77935 | -1.83494 | 46 ft | 4 kts | 1° |
| 2026-05-07 15:42 | 50.77985 | -1.83459 | 44 ft | 11 kts | 38° |
| 2026-05-07 15:42 | 50.78023 | -1.83368 | 45 ft | 9 kts | 63° |
| 2026-05-07 15:42 | 50.78050 | -1.83278 | 46 ft | 9 kts | 64° |
| 2026-05-07 15:42 | 50.78076 | -1.83199 | 44 ft | 8 kts | 57° |
| 2026-05-07 15:43 | 50.78108 | -1.83129 | 46 ft | 8 kts | 55° |
| 2026-05-07 15:43 | 50.78123 | -1.83056 | 46 ft | 7 kts | 83° |
| 2026-05-07 15:43 | 50.78122 | -1.82990 | 46 ft | 6 kts | 94° |
| 2026-05-07 15:43 | 50.78120 | -1.82902 | 46 ft | 10 kts | 83° |
| 2026-05-07 15:44 | 50.78145 | -1.82805 | 46 ft | 7 kts | 54° |
| 2026-05-07 15:44 | 50.78149 | -1.82798 | 43 ft | 0 kts | 50° |
| 2026-05-07 15:46 | 50.78170 | -1.82761 | 45 ft | 10 kts | 45° |
| 2026-05-07 15:46 | 50.78232 | -1.82733 | 44 ft | 10 kts | 342° |
| 2026-05-07 15:47 | 50.78248 | -1.82800 | 44 ft | 0 kts | 252° |
| 2026-05-07 15:47 | 50.78243 | -1.82821 | 43 ft | 15 kts | 253° |
| 2026-05-07 15:48 | 50.78135 | -1.83428 | 46 ft | 94 kts | 256° |
| 2026-05-07 15:48 | 50.77902 | -1.84745 | 87 ft | 148 kts | 252° |
| 2026-05-07 15:48 | 50.77694 | -1.86334 | 759 ft | 149 kts | 257° |
| 2026-05-07 15:48 | 50.77461 | -1.87970 | 1355 ft | 161 kts | 250° |
| 2026-05-07 15:49 | 50.77195 | -1.89814 | 1795 ft | 186 kts | 264° |
| 2026-05-07 15:49 | 50.77662 | -1.91845 | 2139 ft | 216 kts | 311° |
| 2026-05-07 15:49 | 50.79041 | -1.92946 | 2596 ft | 237 kts | 354° |
| 2026-05-07 15:49 | 50.80703 | -1.92382 | 3055 ft | 259 kts | 34° |
| 2026-05-07 15:50 | 50.81885 | -1.90269 | 3885 ft | 265 kts | 65° |
| 2026-05-07 15:50 | 50.82552 | -1.87555 | 4950 ft | 266 kts | 75° |
| 2026-05-07 15:50 | 50.83056 | -1.84713 | 5679 ft | 270 kts | 75° |
| 2026-05-07 15:50 | 50.83562 | -1.81847 | 5928 ft | 271 kts | 73° |
| 2026-05-07 15:51 | 50.84127 | -1.79005 | 6000 ft | 271 kts | 71° |
| 2026-05-07 15:51 | 50.84763 | -1.76170 | 6560 ft | 275 kts | 69° |
| 2026-05-07 15:51 | 50.85451 | -1.73327 | 7513 ft | 280 kts | 69° |
| 2026-05-07 15:51 | 50.86182 | -1.70431 | 8390 ft | 287 kts | 69° |
| 2026-05-07 15:52 | 50.86945 | -1.67477 | 9302 ft | 293 kts | 68° |
| 2026-05-07 15:52 | 50.87722 | -1.64507 | 10151 ft | 300 kts | 69° |
| 2026-05-07 15:52 | 50.88553 | -1.61333 | 10522 ft | 324 kts | 68° |
| 2026-05-07 15:52 | 50.89448 | -1.57910 | 10889 ft | 346 kts | 69° |
| 2026-05-07 15:53 | 50.90380 | -1.54346 | 11589 ft | 354 kts | 69° |
| 2026-05-07 15:53 | 50.91324 | -1.50723 | 12404 ft | 358 kts | 69° |
| 2026-05-07 15:53 | 50.92278 | -1.47055 | 13232 ft | 362 kts | 69° |
| 2026-05-07 15:53 | 50.93241 | -1.43345 | 14028 ft | 366 kts | 69° |
| 2026-05-07 15:54 | 50.94405 | -1.39737 | 14730 ft | 371 kts | 57° |
| 2026-05-07 15:54 | 50.96064 | -1.36583 | 15443 ft | 376 kts | 43° |
| 2026-05-07 15:54 | 50.98126 | -1.34109 | 16132 ft | 380 kts | 30° |
| 2026-05-07 15:54 | 51.00546 | -1.32408 | 16813 ft | 383 kts | 16° |
| 2026-05-07 15:55 | 51.03128 | -1.31318 | 17500 ft | 386 kts | 13° |
| 2026-05-07 15:55 | 51.05744 | -1.30238 | 18185 ft | 390 kts | 13° |
| 2026-05-07 15:55 | 51.08379 | -1.29138 | 18789 ft | 394 kts | 13° |
| 2026-05-07 15:55 | 51.11036 | -1.28020 | 19386 ft | 397 kts | 13° |
| 2026-05-07 15:56 | 51.13714 | -1.26891 | 19975 ft | 400 kts | 13° |
| 2026-05-07 15:56 | 51.16416 | -1.25750 | 20539 ft | 403 kts | 13° |
| 2026-05-07 15:56 | 51.19137 | -1.24602 | 21128 ft | 406 kts | 13° |
| 2026-05-07 15:56 | 51.21875 | -1.23447 | 21694 ft | 409 kts | 13° |
| 2026-05-07 15:57 | 51.24602 | -1.22292 | 22245 ft | 412 kts | 13° |
| 2026-05-07 15:57 | 51.27381 | -1.21111 | 22794 ft | 415 kts | 13° |
| 2026-05-07 15:57 | 51.30182 | -1.19917 | 23017 ft | 417 kts | 13° |
| 2026-05-07 15:57 | 51.32993 | -1.18716 | 23057 ft | 419 kts | 13° |
| 2026-05-07 15:58 | 51.35806 | -1.17516 | 23040 ft | 419 kts | 13° |
| 2026-05-07 15:58 | 51.38622 | -1.16319 | 23034 ft | 419 kts | 13° |
| 2026-05-07 15:58 | 51.40877 | -1.15362 | 23030 ft | 419 kts | 13° |
| 2026-05-07 15:58 | 51.43244 | -1.14357 | 23034 ft | 419 kts | 13° |